| time (UTC) | temp F | wind direction | speed MPH | gust MPH | rain 1hr in | rain 24hr in | rain mn in | humidity % | barometer mb |
| 20260510154003 | 80 | 113 | 5.0 | 7.0 | 0.00 | 0.00 | 0.00 | 73 | 1015.1 |
| 20260510153458 | 79 | 229 | 2.0 | 3.0 | 0.00 | 0.00 | 0.00 | 75 | 1015.0 |
| 20260510152955 | 80 | 177 | 5.0 | 6.0 | 0.00 | 0.00 | 0.00 | 73 | 1015.1 |
| 20260510152453 | 81 | 250 | 1.0 | 2.0 | 0.00 | 0.00 | 0.00 | 73 | 1014.8 |
| 20260510151949 | 80 | 212 | 3.0 | 5.0 | 0.00 | 0.00 | 0.00 | 74 | 1015.1 |
| 20260510151446 | 79 | 110 | 6.0 | 7.0 | 0.00 | 0.00 | 0.00 | 73 | 1015.2 |
| 20260510150942 | 79 | 216 | 3.0 | 5.0 | 0.00 | 0.00 | 0.00 | 74 | 1014.8 |
| 20260510150438 | 79 | 169 | 5.0 | 6.0 | 0.00 | 0.00 | 0.00 | 75 | 1014.9 |
| 20260510145933 | 77 | 251 | 2.0 | 3.0 | 0.00 | 0.00 | 0.00 | 76 | 1014.9 |
| 20260510145425 | 77 | 176 | 5.0 | 7.0 | 0.00 | 0.00 | 0.00 | 77 | 1015.0 |
| 20260510144921 | 77 | 236 | 4.0 | 5.0 | 0.00 | 0.00 | 0.00 | 77 | 1014.9 |
| 20260510144418 | 77 | 175 | 6.0 | 8.0 | 0.00 | 0.00 | 0.00 | 76 | 1014.8 |
| 20260510143913 | 77 | 140 | 5.0 | 6.0 | 0.00 | 0.00 | 0.00 | 76 | 1014.8 |
| 20260510143410 | 77 | 134 | 4.0 | 5.0 | 0.00 | 0.00 | 0.00 | 76 | 1014.7 |
| 20260510142907 | 76 | 167 | 3.0 | 3.0 | 0.00 | 0.00 | 0.00 | 79 | 1014.6 |
| 20260510142403 | 75 | 247 | 4.0 | 6.0 | 0.00 | 0.00 | 0.00 | 80 | 1014.7 |
| 20260510141900 | 75 | 204 | 3.0 | 3.0 | 0.00 | 0.00 | 0.00 | 81 | 1014.8 |
| 20260510141357 | 75 | 160 | 7.0 | 8.0 | 0.00 | 0.00 | 0.00 | 81 | 1014.5 |
| 20260510140854 | 75 | 94 | 3.0 | 3.0 | 0.00 | 0.00 | 0.00 | 82 | 1014.6 |
| 20260510140350 | 74 | 222 | 3.0 | 6.0 | 0.00 | 0.00 | 0.00 | 83 | 1014.5 |
| 20260510135843 | 74 | 133 | 5.0 | 7.0 | 0.00 | 0.00 | 0.00 | 83 | 1014.6 |
| 20260510135339 | 74 | 206 | 4.0 | 5.0 | 0.00 | 0.00 | 0.00 | 84 | 1014.3 |
| 20260510134837 | 74 | 156 | 5.0 | 6.0 | 0.00 | 0.00 | 0.00 | 84 | 1014.6 |
| 20260510134334 | 73 | 129 | 4.0 | 5.0 | 0.00 | 0.00 | 0.00 | 84 | 1014.3 |
| 20260510133830 | 73 | 325 | 2.0 | 2.0 | 0.00 | 0.00 | 0.00 | 85 | 1014.1 |
| 20260510133326 | 73 | 174 | 3.0 | 5.0 | 0.00 | 0.00 | 0.00 | 85 | 1014.0 |
| 20260510132822 | 72 | 231 | 4.0 | 5.0 | 0.00 | 0.00 | 0.00 | 86 | 1013.9 |
| 20260510132320 | 72 | 144 | 5.0 | 6.0 | 0.00 | 0.00 | 0.00 | 86 | 1013.9 |
| 20260510131817 | 71 | 199 | 4.0 | 6.0 | 0.00 | 0.00 | 0.00 | 87 | 1013.9 |
| 20260510131314 | 71 | 196 | 3.0 | 3.0 | 0.00 | 0.00 | 0.00 | 88 | 1013.8 |
| 20260510130811 | 71 | 171 | 4.0 | 5.0 | 0.00 | 0.00 | 0.00 | 88 | 1013.7 |
| 20260510130308 | 70 | 208 | 3.0 | 5.0 | 0.00 | 0.00 | 0.00 | 89 | 1013.6 |
| 20260510125804 | 70 | 157 | 5.0 | 6.0 | 0.00 | 0.00 | 0.00 | 89 | 1013.5 |
| 20260510125300 | 70 | 136 | 5.0 | 6.0 | 0.00 | 0.00 | 0.00 | 89 | 1013.4 |
| 20260510124757 | 70 | 143 | 3.0 | 5.0 | 0.00 | 0.00 | 0.00 | 90 | 1013.3 |
| 20260510124254 | 70 | 192 | 5.0 | 6.0 | 0.00 | 0.00 | 0.00 | 90 | 1013.1 |
| 20260510123750 | 69 | 186 | 3.0 | 5.0 | 0.00 | 0.00 | 0.00 | 90 | 1013.2 |
| 20260510123245 | 69 | 182 | 3.0 | 3.0 | 0.00 | 0.00 | 0.00 | 91 | 1013.1 |
| 20260510122741 | 69 | 214 | 4.0 | 5.0 | 0.00 | 0.00 | 0.00 | 91 | 1012.9 |
| 20260510122232 | 69 | 203 | 7.0 | 8.0 | 0.00 | 0.00 | 0.00 | 92 | 1012.9 |
| 20260510121723 | 69 | 203 | 6.0 | 7.0 | 0.00 | 0.00 | 0.00 | 92 | 1012.6 |
| 20260510121221 | 68 | 247 | 5.0 | 6.0 | 0.00 | 0.00 | 0.00 | 92 | 1012.4 |
| 20260510120718 | 68 | 213 | 4.0 | 6.0 | 0.00 | 0.00 | 0.00 | 93 | 1012.3 |
| 20260510120214 | 68 | 215 | 5.0 | 6.0 | 0.00 | 0.00 | 0.00 | 93 | 1012.3 |
| 20260510115710 | 68 | 226 | 7.0 | 8.0 | 0.00 | 0.00 | 0.00 | 93 | 1012.2 |
| 20260510115208 | 68 | 210 | 5.0 | 6.0 | 0.00 | 0.00 | 0.00 | 93 | 1012.2 |
| 20260510114702 | 68 | 216 | 5.0 | 6.0 | 0.00 | 0.00 | 0.00 | 93 | 1012.3 |
| 20260510114200 | 68 | 225 | 5.0 | 6.0 | 0.00 | 0.00 | 0.00 | 93 | 1012.5 |
| 20260510113649 | 68 | 218 | 5.0 | 6.0 | 0.00 | 0.00 | 0.00 | 93 | 1012.3 |
| 20260510113146 | 68 | 212 | 5.0 | 6.0 | 0.00 | 0.00 | 0.00 | 93 | 1012.2 |
| 20260510112642 | 68 | 226 | 5.0 | 7.0 | 0.00 | 0.00 | 0.00 | 93 | 1012.2 |
| 20260510112139 | 68 | 216 | 4.0 | 6.0 | 0.00 | 0.00 | 0.00 | 92 | 1012.1 |
| 20260510111635 | 69 | 209 | 6.0 | 7.0 | 0.00 | 0.00 | 0.00 | 92 | 1012.4 |
| 20260510111131 | 69 | 226 | 5.0 | 6.0 | 0.00 | 0.00 | 0.00 | 92 | 1012.0 |
| 20260510110627 | 69 | 222 | 5.0 | 6.0 | 0.00 | 0.00 | 0.00 | 92 | 1012.2 |
| 20260510110125 | 69 | 224 | 6.0 | 7.0 | 0.00 | 0.00 | 0.00 | 92 | 1012.2 |
| 20260510105620 | 69 | 230 | 5.0 | 6.0 | 0.00 | 0.00 | 0.00 | 92 | 1012.1 |
| 20260510105115 | 69 | 215 | 5.0 | 6.0 | 0.00 | 0.00 | 0.00 | 92 | 1012.0 |
| 20260510104612 | 69 | 242 | 4.0 | 5.0 | 0.00 | 0.00 | 0.00 | 92 | 1012.0 |
| 20260510104108 | 69 | 218 | 5.0 | 7.0 | 0.00 | 0.00 | 0.00 | 92 | 1012.0 |
| 20260510103606 | 69 | 227 | 6.0 | 7.0 | 0.00 | 0.00 | 0.00 | 92 | 1012.0 |
| 20260510103101 | 69 | 237 | 5.0 | 7.0 | 0.00 | 0.00 | 0.00 | 91 | 1012.0 |
| 20260510102557 | 69 | 233 | 4.0 | 6.0 | 0.00 | 0.00 | 0.00 | 91 | 1011.9 |
| 20260510102053 | 69 | 224 | 5.0 | 7.0 | 0.00 | 0.00 | 0.00 | 91 | 1012.0 |
| 20260510101551 | 69 | 253 | 3.0 | 3.0 | 0.00 | 0.00 | 0.00 | 91 | 1012.0 |
| 20260510101049 | 70 | 250 | 3.0 | 5.0 | 0.00 | 0.00 | 0.00 | 90 | 1011.7 |
| 20260510100545 | 70 | 224 | 6.0 | 8.0 | 0.00 | 0.00 | 0.00 | 90 | 1011.6 |
| 20260510100043 | 70 | 221 | 5.0 | 6.0 | 0.00 | 0.00 | 0.00 | 89 | 1011.5 |
| 20260510095539 | 70 | 213 | 5.0 | 6.0 | 0.00 | 0.00 | 0.00 | 90 | 1011.6 |
| 20260510095038 | 70 | 234 | 6.0 | 7.0 | 0.00 | 0.00 | 0.00 | 90 | 1011.6 |
| 20260510094533 | 70 | 233 | 5.0 | 6.0 | 0.00 | 0.00 | 0.00 | 90 | 1011.7 |
| 20260510094028 | 70 | 216 | 6.0 | 7.0 | 0.00 | 0.00 | 0.00 | 89 | 1011.6 |
| 20260510093524 | 70 | 227 | 6.0 | 7.0 | 0.00 | 0.00 | 0.00 | 89 | 1011.6 |
| 20260510093021 | 70 | 191 | 5.0 | 6.0 | 0.00 | 0.00 | 0.00 | 89 | 1011.5 |
| 20260510092518 | 70 | 191 | 6.0 | 7.0 | 0.00 | 0.00 | 0.00 | 90 | 1011.4 |
| 20260510092018 | 70 | 255 | 4.0 | 5.0 | 0.00 | 0.00 | 0.00 | 89 | 1011.3 |
| 20260510091515 | 70 | 234 | 4.0 | 5.0 | 0.00 | 0.00 | 0.00 | 89 | 1011.5 |
| 20260510091010 | 70 | 231 | 4.0 | 6.0 | 0.00 | 0.00 | 0.00 | 89 | 1011.2 |
| 20260510090508 | 70 | 259 | 2.0 | 3.0 | 0.00 | 0.00 | 0.00 | 88 | 1011.3 |
| 20260510090003 | 70 | 230 | 5.0 | 5.0 | 0.00 | 0.00 | 0.00 | 89 | 1011.6 |
| 20260510085458 | 70 | 252 | 3.0 | 3.0 | 0.00 | 0.00 | 0.00 | 88 | 1011.5 |
| 20260510084954 | 70 | 240 | 3.0 | 3.0 | 0.00 | 0.00 | 0.00 | 88 | 1011.4 |
| 20260510084451 | 71 | 229 | 4.0 | 6.0 | 0.00 | 0.00 | 0.00 | 87 | 1011.6 |
| 20260510083948 | 71 | 238 | 5.0 | 6.0 | 0.00 | 0.00 | 0.00 | 87 | 1011.4 |
| 20260510083445 | 71 | 245 | 4.0 | 5.0 | 0.00 | 0.00 | 0.00 | 86 | 1011.6 |
| 20260510082940 | 70 | 212 | 4.0 | 5.0 | 0.00 | 0.00 | 0.00 | 87 | 1011.7 |
| 20260510082438 | 70 | 231 | 3.0 | 3.0 | 0.00 | 0.00 | 0.00 | 87 | 1011.8 |
| 20260510081937 | 71 | 287 | 3.0 | 6.0 | 0.00 | 0.00 | 0.00 | 86 | 1011.5 |
| 20260510081433 | 71 | 278 | 2.0 | 2.0 | 0.00 | 0.00 | 0.00 | 85 | 1011.6 |
| 20260510080930 | 71 | 242 | 3.0 | 5.0 | 0.00 | 0.00 | 0.00 | 85 | 1011.9 |
| 20260510080428 | 71 | 232 | 6.0 | 8.0 | 0.00 | 0.00 | 0.00 | 84 | 1011.9 |
| 20260510075925 | 72 | 192 | 5.0 | 7.0 | 0.00 | 0.00 | 0.00 | 84 | 1011.8 |
| 20260510075424 | 72 | 196 | 6.0 | 9.0 | 0.00 | 0.00 | 0.00 | 83 | 1011.8 |
| 20260510074920 | 72 | 210 | 7.0 | 8.0 | 0.00 | 0.00 | 0.00 | 83 | 1011.8 |
| 20260510074417 | 72 | 200 | 7.0 | 9.0 | 0.00 | 0.00 | 0.00 | 82 | 1012.1 |
| 20260510073914 | 72 | 172 | 8.0 | 9.0 | 0.00 | 0.00 | 0.00 | 82 | 1012.1 |
| 20260510073409 | 72 | 204 | 9.0 | 11.0 | 0.00 | 0.00 | 0.00 | 81 | 1012.2 |
| 20260510072906 | 73 | 197 | 6.0 | 8.0 | 0.00 | 0.00 | 0.00 | 81 | 1012.2 |
| 20260510072402 | 73 | 203 | 6.0 | 8.0 | 0.00 | 0.00 | 0.00 | 81 | 1011.9 |
| 20260510071858 | 73 | 161 | 6.0 | 8.0 | 0.00 | 0.00 | 0.00 | 81 | 1012.0 |
| 20260510071355 | 73 | 218 | 5.0 | 6.0 | 0.00 | 0.00 | 0.00 | 80 | 1011.9 |
| 20260510070853 | 73 | 210 | 6.0 | 7.0 | 0.00 | 0.00 | 0.00 | 80 | 1011.8 |
| 20260510070350 | 73 | 193 | 9.0 | 10.0 | 0.00 | 0.00 | 0.00 | 80 | 1011.8 |
| 20260510065850 | 73 | 219 | 6.0 | 7.0 | 0.00 | 0.00 | 0.00 | 79 | 1011.7 |
| 20260510065347 | 74 | 189 | 5.0 | 7.0 | 0.00 | 0.00 | 0.00 | 78 | 1011.7 |
| 20260510064843 | 74 | 190 | 6.0 | 7.0 | 0.00 | 0.00 | 0.00 | 78 | 1011.8 |
| 20260510064342 | 74 | 185 | 7.0 | 10.0 | 0.00 | 0.00 | 0.00 | 77 | 1011.7 |
| 20260510063838 | 74 | 180 | 5.0 | 8.0 | 0.00 | 0.00 | 0.00 | 77 | 1011.9 |
| 20260510063334 | 74 | 208 | 5.0 | 6.0 | 0.00 | 0.00 | 0.00 | 76 | 1011.8 |
| 20260510062831 | 74 | 194 | 8.0 | 9.0 | 0.00 | 0.00 | 0.00 | 76 | 1011.7 |
| 20260510062326 | 74 | 206 | 5.0 | 7.0 | 0.00 | 0.00 | 0.00 | 76 | 1011.9 |
| 20260510061821 | 75 | 184 | 5.0 | 7.0 | 0.00 | 0.00 | 0.00 | 76 | 1011.8 |
| 20260510061319 | 75 | 213 | 5.0 | 6.0 | 0.00 | 0.00 | 0.00 | 76 | 1011.8 |
| 20260510060815 | 75 | 201 | 4.0 | 5.0 | 0.00 | 0.00 | 0.00 | 76 | 1011.7 |
| 20260510060312 | 75 | 194 | 3.0 | 3.0 | 0.00 | 0.00 | 0.00 | 76 | 1011.8 |
| 20260510055809 | 75 | 204 | 4.0 | 5.0 | 0.00 | 0.01 | 0.01 | 76 | 1011.9 |
| 20260510055307 | 75 | 163 | 5.0 | 7.0 | 0.00 | 0.01 | 0.01 | 75 | 1011.6 |
| 20260510054807 | 75 | 196 | 8.0 | 10.0 | 0.00 | 0.01 | 0.01 | 75 | 1011.7 |
| 20260510054304 | 75 | 177 | 4.0 | 5.0 | 0.00 | 0.01 | 0.01 | 75 | 1011.7 |
| 20260510053804 | 76 | 222 | 3.0 | 3.0 | 0.00 | 0.01 | 0.01 | 75 | 1011.4 |
| 20260510053254 | 75 | 190 | 5.0 | 7.0 | 0.00 | 0.01 | 0.01 | 76 | 1011.8 |
| 20260510052750 | 76 | 196 | 4.0 | 6.0 | 0.00 | 0.01 | 0.01 | 77 | 1011.6 |
| 20260510052245 | 76 | 131 | 5.0 | 6.0 | 0.00 | 0.01 | 0.01 | 78 | 1011.6 |
| 20260510051742 | 76 | 197 | 3.0 | 5.0 | 0.00 | 0.01 | 0.01 | 78 | 1011.6 |
| 20260510051238 | 76 | 162 | 4.0 | 5.0 | 0.00 | 0.01 | 0.01 | 77 | 1011.8 |
| 20260510050735 | 77 | 192 | 3.0 | 5.0 | 0.00 | 0.01 | 0.01 | 76 | 1011.9 |
| 20260510050233 | 77 | 177 | 3.0 | 5.0 | 0.00 | 0.01 | 0.01 | 75 | 1011.7 |
| 20260510045729 | 77 | 143 | 6.0 | 7.0 | 0.00 | 0.01 | 0.01 | 76 | 1011.7 |
| 20260510045226 | 77 | 161 | 3.0 | 5.0 | 0.00 | 0.01 | 0.01 | 78 | 1011.6 |
| 20260510044722 | 77 | 160 | 4.0 | 5.0 | 0.00 | 0.01 | 0.01 | 78 | 1011.5 |
| 20260510044221 | 77 | 183 | 3.0 | 3.0 | 0.00 | 0.01 | 0.01 | 78 | 1011.6 |
| 20260510043715 | 77 | 129 | 4.0 | 5.0 | 0.00 | 0.01 | 0.01 | 78 | 1011.7 |
| 20260510043212 | 77 | 243 | 3.0 | 5.0 | 0.00 | 0.01 | 0.01 | 78 | 1011.8 |
| 20260510042710 | 77 | 217 | 4.0 | 5.0 | 0.00 | 0.01 | 0.01 | 78 | 1011.7 |
| 20260510042206 | 77 | 260 | 2.0 | 2.0 | 0.00 | 0.01 | 0.01 | 78 | 1011.6 |
| 20260510041703 | 78 | 212 | 3.0 | 3.0 | 0.00 | 0.01 | 0.01 | 77 | 1011.9 |
| 20260510041200 | 78 | 135 | 4.0 | 5.0 | 0.00 | 0.01 | 0.01 | 77 | 1011.8 |
| 20260510040657 | 78 | 197 | 3.0 | 5.0 | 0.00 | 0.01 | 0.01 | 77 | 1011.9 |
| 20260510040154 | 78 | 163 | 4.0 | 5.0 | 0.00 | 0.01 | 0.01 | 78 | 1011.7 |
| 20260510035649 | 78 | 171 | 4.0 | 6.0 | 0.00 | 0.01 | 0.01 | 78 | 1011.7 |
| 20260510035144 | 78 | 143 | 5.0 | 7.0 | 0.00 | 0.01 | 0.01 | 78 | 1011.6 |
| 20260510034641 | 78 | 203 | 4.0 | 5.0 | 0.00 | 0.01 | 0.01 | 79 | 1011.5 |
| 20260510034139 | 78 | 194 | 5.0 | 7.0 | 0.00 | 0.01 | 0.01 | 79 | 1011.4 |
| 20260510033635 | 78 | 138 | 4.0 | 6.0 | 0.00 | 0.01 | 0.01 | 79 | 1011.5 |
| 20260510033133 | 78 | 167 | 4.0 | 6.0 | 0.00 | 0.01 | 0.01 | 79 | 1011.5 |
| 20260510032629 | 78 | 186 | 3.0 | 3.0 | 0.00 | 0.01 | 0.01 | 79 | 1011.3 |
| 20260510032124 | 79 | 242 | 2.0 | 2.0 | 0.00 | 0.01 | 0.01 | 78 | 1011.2 |
| 20260510031619 | 79 | 189 | 3.0 | 5.0 | 0.00 | 0.01 | 0.01 | 78 | 1011.5 |
| 20260510031116 | 79 | 139 | 5.0 | 6.0 | 0.00 | 0.01 | 0.01 | 77 | 1011.1 |
| 20260510030611 | 79 | 193 | 4.0 | 6.0 | 0.00 | 0.01 | 0.01 | 77 | 1011.2 |
| 20260510030109 | 79 | 181 | 4.0 | 6.0 | 0.00 | 0.01 | 0.01 | 76 | 1011.1 |
| 20260510025606 | 80 | 172 | 5.0 | 7.0 | 0.00 | 0.01 | 0.01 | 76 | 1011.2 |
| 20260510025103 | 80 | 201 | 3.0 | 3.0 | 0.00 | 0.01 | 0.01 | 75 | 1011.1 |
| 20260510024600 | 80 | 179 | 5.0 | 6.0 | 0.00 | 0.01 | 0.01 | 73 | 1010.9 |
| 20260510024056 | 80 | 164 | 5.0 | 6.0 | 0.00 | 0.01 | 0.01 | 72 | 1010.8 |
| 20260510023552 | 80 | 212 | 3.0 | 3.0 | 0.00 | 0.01 | 0.01 | 71 | 1011.0 |
| 20260510023050 | 80 | 199 | 4.0 | 5.0 | 0.00 | 0.01 | 0.01 | 71 | 1010.7 |
| 20260510022549 | 81 | 223 | 1.0 | 2.0 | 0.00 | 0.01 | 0.01 | 69 | 1010.6 |
| 20260510022043 | 81 | 193 | 4.0 | 5.0 | 0.00 | 0.01 | 0.01 | 69 | 1010.5 |
| 20260510021535 | 80 | 221 | 2.0 | 3.0 | 0.00 | 0.01 | 0.01 | 69 | 1010.3 |
| 20260510021032 | 81 | 241 | 2.0 | 2.0 | 0.00 | 0.01 | 0.01 | 69 | 1010.4 |
| 20260510020526 | 81 | 232 | 2.0 | 3.0 | 0.00 | 0.01 | 0.01 | 69 | 1010.3 |
| 20260510020022 | 81 | 269 | 0.0 | 1.0 | 0.00 | 0.01 | 0.01 | 69 | 1010.2 |
| 20260510015518 | 81 | 260 | 2.0 | 2.0 | 0.00 | 0.01 | 0.01 | 68 | 1010.0 |
| 20260510015014 | 81 | 169 | 2.0 | 2.0 | 0.00 | 0.01 | 0.01 | 68 | 1009.9 |
| 20260510014511 | 82 | 177 | 3.0 | 3.0 | 0.00 | 0.01 | 0.01 | 67 | 1010.1 |
| 20260510014008 | 82 | 193 | 4.0 | 5.0 | 0.00 | 0.01 | 0.01 | 66 | 1009.9 |
| 20260510013502 | 82 | 185 | 3.0 | 5.0 | 0.00 | 0.01 | 0.01 | 66 | 1010.0 |
| 20260510012958 | 82 | 149 | 5.0 | 7.0 | 0.00 | 0.01 | 0.01 | 65 | 1009.9 |
| 20260510012453 | 83 | 116 | 5.0 | 6.0 | 0.00 | 0.01 | 0.01 | 64 | 1010.2 |
| 20260510011949 | 83 | 122 | 3.0 | 5.0 | 0.00 | 0.01 | 0.01 | 63 | 1009.9 |
| 20260510011444 | 83 | 164 | 2.0 | 3.0 | 0.00 | 0.01 | 0.01 | 62 | 1009.6 |
| 20260510010940 | 83 | 106 | 4.0 | 5.0 | 0.00 | 0.01 | 0.01 | 61 | 1009.9 |
| 20260510010437 | 84 | 132 | 7.0 | 8.0 | 0.00 | 0.01 | 0.01 | 60 | 1009.9 |
| 20260510005934 | 84 | 195 | 4.0 | 5.0 | 0.00 | 0.01 | 0.01 | 59 | 1009.6 |
| 20260510005430 | 84 | 178 | 3.0 | 5.0 | 0.00 | 0.01 | 0.01 | 58 | 1009.6 |
| 20260510004927 | 84 | 189 | 4.0 | 5.0 | 0.00 | 0.01 | 0.01 | 58 | 1009.8 |
| 20260510004425 | 85 | 181 | 5.0 | 7.0 | 0.00 | 0.01 | 0.01 | 57 | 1009.6 |
| 20260510003923 | 85 | 161 | 3.0 | 5.0 | 0.00 | 0.01 | 0.01 | 57 | 1009.8 |
| 20260510003419 | 85 | 200 | 3.0 | 3.0 | 0.00 | 0.01 | 0.01 | 57 | 1009.2 |
| 20260510002918 | 85 | 250 | 2.0 | 3.0 | 0.00 | 0.01 | 0.01 | 56 | 1009.3 |
| 20260510002416 | 86 | 176 | 4.0 | 5.0 | 0.00 | 0.01 | 0.01 | 55 | 1009.4 |
| 20260510001912 | 86 | 111 | 4.0 | 5.0 | 0.00 | 0.01 | 0.01 | 55 | 1009.4 |
| 20260510001410 | 86 | 134 | 5.0 | 6.0 | 0.00 | 0.01 | 0.01 | 55 | 1009.3 |
| 20260510000907 | 86 | 96 | 4.0 | 6.0 | 0.00 | 0.01 | 0.01 | 54 | 1009.3 |
| 20260510000404 | 86 | 134 | 6.0 | 8.0 | 0.00 | 0.01 | 0.01 | 53 | 1009.4 |
| 20260509235900 | 86 | 151 | 5.0 | 7.0 | 0.00 | 0.01 | 0.01 | 52 | 1009.3 |
| 20260509235357 | 87 | 154 | 3.0 | 3.0 | 0.00 | 0.01 | 0.01 | 52 | 1009.1 |
| 20260509234852 | 87 | 186 | 4.0 | 6.0 | 0.00 | 0.01 | 0.01 | 51 | 1009.2 |
| 20260509234350 | 87 | 190 | 3.0 | 6.0 | 0.00 | 0.01 | 0.01 | 51 | 1009.2 |
| 20260509233848 | 87 | 149 | 6.0 | 8.0 | 0.00 | 0.01 | 0.01 | 51 | 1009.0 |
| 20260509233345 | 87 | 136 | 5.0 | 6.0 | 0.00 | 0.01 | 0.01 | 50 | 1009.2 |
| 20260509232841 | 88 | 122 | 3.0 | 5.0 | 0.00 | 0.01 | 0.01 | 49 | 1009.3 |
| 20260509232339 | 87 | 236 | 2.0 | 3.0 | 0.00 | 0.01 | 0.01 | 50 | 1009.2 |
| 20260509231834 | 87 | 71 | 5.0 | 7.0 | 0.00 | 0.01 | 0.01 | 49 | 1009.0 |
| 20260509231332 | 88 | 156 | 3.0 | 3.0 | 0.00 | 0.01 | 0.01 | 48 | 1008.9 |
| 20260509230829 | 89 | 81 | 6.0 | 8.0 | 0.00 | 0.01 | 0.01 | 47 | 1008.9 |
| 20260509230326 | 89 | 104 | 4.0 | 6.0 | 0.00 | 0.01 | 0.01 | 47 | 1009.0 |
| 20260509225821 | 89 | 194 | 6.0 | 7.0 | 0.00 | 0.01 | 0.01 | 46 | 1008.9 |
| 20260509225319 | 89 | 306 | 2.0 | 3.0 | 0.00 | 0.01 | 0.01 | 47 | 1008.8 |
| 20260509224814 | 88 | 324 | 1.0 | 2.0 | 0.00 | 0.01 | 0.01 | 48 | 1009.1 |
| 20260509224311 | 89 | 194 | 5.0 | 5.0 | 0.00 | 0.01 | 0.01 | 47 | 1009.1 |
| 20260509223807 | 91 | 297 | 0.0 | 1.0 | 0.00 | 0.01 | 0.01 | 51 | 1009.2 |
| 20260509223305 | 92 | 312 | 2.0 | 3.0 | 0.00 | 0.01 | 0.01 | 47 | 1009.3 |
| 20260509222801 | 91 | 309 | 3.0 | 3.0 | 0.00 | 0.01 | 0.01 | 48 | 1008.9 |
| 20260509222257 | 89 | 311 | 1.0 | 1.0 | 0.00 | 0.01 | 0.01 | 51 | 1009.0 |
| 20260509221753 | 89 | 149 | 2.0 | 2.0 | 0.00 | 0.01 | 0.01 | 52 | 1009.0 |
| 20260509221250 | 91 | 113 | 3.0 | 3.0 | 0.00 | 0.01 | 0.01 | 50 | 1008.9 |
| 20260509220745 | 92 | 281 | 1.0 | 1.0 | 0.00 | 0.01 | 0.01 | 48 | 1009.1 |
| 20260509220242 | 91 | 329 | 0.0 | 1.0 | 0.00 | 0.01 | 0.01 | 49 | 1009.0 |
| 20260509215737 | 93 | 306 | 1.0 | 1.0 | 0.00 | 0.01 | 0.01 | 48 | 1009.0 |
| 20260509215234 | 92 | 6 | 3.0 | 3.0 | 0.00 | 0.01 | 0.01 | 49 | 1009.1 |
| 20260509214731 | 90 | 66 | 3.0 | 5.0 | 0.00 | 0.01 | 0.01 | 51 | 1009.0 |
| 20260509214228 | 90 | 267 | 2.0 | 2.0 | 0.00 | 0.01 | 0.01 | 51 | 1009.3 |
| 20260509213725 | 89 | 170 | 4.0 | 5.0 | 0.00 | 0.01 | 0.01 | 51 | 1009.3 |
| 20260509213221 | 89 | 252 | 4.0 | 5.0 | 0.00 | 0.01 | 0.01 | 52 | 1009.3 |
| 20260509212718 | 90 | 8 | 3.0 | 6.0 | 0.00 | 0.01 | 0.01 | 53 | 1009.3 |
| 20260509212215 | 90 | 292 | 1.0 | 1.0 | 0.00 | 0.01 | 0.01 | 52 | 1009.3 |
| 20260509211711 | 89 | 21 | 2.0 | 5.0 | 0.00 | 0.01 | 0.01 | 53 | 1009.4 |
| 20260509211207 | 88 | 120 | 3.0 | 5.0 | 0.00 | 0.01 | 0.01 | 53 | 1009.4 |
| 20260509210703 | 89 | 319 | 1.0 | 1.0 | 0.00 | 0.01 | 0.01 | 51 | 1009.6 |
| 20260509210156 | 88 | 55 | 5.0 | 7.0 | 0.00 | 0.01 | 0.01 | 51 | 1009.9 |
| 20260509205651 | 89 | 129 | 2.0 | 3.0 | 0.00 | 0.01 | 0.01 | 52 | 1009.8 |
| 20260509205150 | 89 | 103 | 5.0 | 7.0 | 0.00 | 0.01 | 0.01 | 52 | 1009.9 |
| 20260509204646 | 88 | 316 | 1.0 | 3.0 | 0.00 | 0.01 | 0.01 | 54 | 1010.1 |
| 20260509204143 | 89 | 107 | 1.0 | 2.0 | 0.00 | 0.01 | 0.01 | 56 | 1010.0 |
| 20260509203638 | 89 | 22 | 6.0 | 8.0 | 0.00 | 0.01 | 0.01 | 54 | 1010.0 |
| 20260509203132 | 87 | 288 | 5.0 | 8.0 | 0.00 | 0.01 | 0.01 | 54 | 1010.0 |
| 20260509202631 | 87 | 162 | 2.0 | 6.0 | 0.00 | 0.01 | 0.01 | 49 | 1010.3 |
| 20260509202127 | 86 | 334 | 4.0 | 7.0 | 0.00 | 0.01 | 0.01 | 51 | 1010.3 |
| 20260509201622 | 86 | 94 | 6.0 | 9.0 | 0.00 | 0.01 | 0.01 | 52 | 1010.8 |
| 20260509201120 | 89 | 114 | 10.0 | 14.0 | 0.00 | 0.01 | 0.01 | 55 | 1011.0 |
| 20260509200615 | 89 | 69 | 3.0 | 3.0 | 0.00 | 0.01 | 0.01 | 57 | 1010.7 |
| 20260509200111 | 87 | 315 | 2.0 | 3.0 | 0.00 | 0.01 | 0.01 | 62 | 1010.7 |
| 20260509195607 | 87 | 79 | 6.0 | 10.0 | 0.00 | 0.01 | 0.01 | 62 | 1010.6 |
| 20260509195102 | 87 | 7 | 4.0 | 6.0 | 0.00 | 0.01 | 0.01 | 61 | 1010.6 |
| 20260509194601 | 88 | 22 | 3.0 | 3.0 | 0.00 | 0.01 | 0.01 | 60 | 1010.4 |
| 20260509194059 | 89 | 301 | 1.0 | 1.0 | 0.00 | 0.01 | 0.01 | 55 | 1010.5 |
| 20260509193554 | 90 | 304 | 1.0 | 1.0 | 0.00 | 0.01 | 0.01 | 53 | 1010.4 |
| 20260509193051 | 89 | 299 | 1.0 | 1.0 | 0.00 | 0.01 | 0.01 | 55 | 1010.5 |
| 20260509192548 | 89 | 334 | 1.0 | 1.0 | 0.00 | 0.01 | 0.01 | 56 | 1010.6 |
| 20260509192042 | 88 | 314 | 1.0 | 1.0 | 0.00 | 0.01 | 0.01 | 58 | 1010.6 |
| 20260509191537 | 88 | 316 | 1.0 | 1.0 | 0.00 | 0.01 | 0.01 | 56 | 1010.8 |
| 20260509191033 | 88 | 27 | 4.0 | 6.0 | 0.00 | 0.01 | 0.01 | 58 | 1010.8 |
| 20260509190530 | 87 | 316 | 1.0 | 2.0 | 0.00 | 0.01 | 0.01 | 59 | 1010.8 |
| 20260509190029 | 88 | 309 | 0.0 | 1.0 | 0.00 | 0.01 | 0.01 | 56 | 1010.7 |
| 20260509185526 | 86 | 327 | 1.0 | 2.0 | 0.00 | 0.01 | 0.01 | 59 | 1011.1 |
| 20260509185021 | 85 | 302 | 5.0 | 7.0 | 0.00 | 0.01 | 0.01 | 62 | 1011.0 |
| 20260509184520 | 85 | 273 | 3.0 | 5.0 | 0.00 | 0.01 | 0.01 | 61 | 1011.2 |
| 20260509184016 | 86 | 297 | 1.0 | 1.0 | 0.00 | 0.01 | 0.01 | 61 | 1011.2 |
| 20260509183511 | 86 | 305 | 1.0 | 1.0 | 0.00 | 0.01 | 0.01 | 61 | 1011.2 |
| 20260509183007 | 86 | 312 | 2.0 | 2.0 | 0.00 | 0.01 | 0.01 | 62 | 1011.2 |
| 20260509182504 | 85 | 303 | 1.0 | 1.0 | 0.00 | 0.01 | 0.01 | 65 | 1011.6 |
| 20260509182001 | 84 | 309 | 3.0 | 5.0 | 0.00 | 0.01 | 0.01 | 63 | 1011.5 |
| 20260509181459 | 84 | 304 | 2.0 | 2.0 | 0.00 | 0.01 | 0.01 | 65 | 1011.5 |
| 20260509180956 | 84 | 297 | 1.0 | 1.0 | 0.00 | 0.01 | 0.01 | 65 | 1011.4 |
| 20260509180451 | 84 | 319 | 3.0 | 5.0 | 0.00 | 0.01 | 0.01 | 65 | 1011.8 |
| 20260509175949 | 84 | 299 | 3.0 | 3.0 | 0.00 | 0.01 | 0.01 | 66 | 1012.0 |
| 20260509175445 | 84 | 228 | 4.0 | 5.0 | 0.00 | 0.01 | 0.01 | 68 | 1011.7 |
| 20260509174942 | 83 | 279 | 2.0 | 2.0 | 0.00 | 0.01 | 0.01 | 70 | 1011.6 |
| 20260509174438 | 82 | 299 | 2.0 | 3.0 | 0.00 | 0.01 | 0.01 | 71 | 1011.6 |
| 20260509173933 | 81 | 305 | 2.0 | 3.0 | 0.00 | 0.01 | 0.01 | 71 | 1011.7 |
| 20260509173432 | 81 | 281 | 3.0 | 3.0 | 0.00 | 0.01 | 0.01 | 69 | 1012.0 |
| 20260509172929 | 81 | 279 | 2.0 | 3.0 | 0.00 | 0.01 | 0.01 | 70 | 1012.0 |
| 20260509172426 | 82 | 285 | 2.0 | 3.0 | 0.00 | 0.01 | 0.01 | 71 | 1012.2 |
| 20260509171922 | 83 | 248 | 3.0 | 3.0 | 0.00 | 0.01 | 0.01 | 69 | 1012.4 |
| 20260509171419 | 82 | 282 | 5.0 | 6.0 | 0.00 | 0.01 | 0.01 | 73 | 1012.2 |
| 20260509170915 | 82 | 244 | 2.0 | 3.0 | 0.00 | 0.01 | 0.01 | 73 | 1012.3 |
| 20260509170411 | 81 | 268 | 3.0 | 3.0 | 0.00 | 0.01 | 0.01 | 75 | 1012.3 |
| 20260509165907 | 81 | 213 | 7.0 | 8.0 | 0.00 | 0.01 | 0.01 | 76 | 1012.4 |
| 20260509165401 | 81 | 251 | 3.0 | 5.0 | 0.00 | 0.01 | 0.01 | 78 | 1012.0 |
| 20260509164857 | 79 | 232 | 3.0 | 5.0 | 0.00 | 0.01 | 0.01 | 80 | 1012.5 |
| 20260509164353 | 80 | 226 | 6.0 | 6.0 | 0.00 | 0.01 | 0.01 | 79 | 1012.5 |
| 20260509163849 | 79 | 302 | 5.0 | 7.0 | 0.00 | 0.01 | 0.01 | 82 | 1012.3 |
| 20260509163346 | 78 | 269 | 4.0 | 5.0 | 0.00 | 0.01 | 0.01 | 83 | 1012.5 |
| 20260509162845 | 77 | 240 | 10.0 | 13.0 | 0.00 | 0.01 | 0.01 | 84 | 1012.3 |
| 20260509162344 | 77 | 185 | 5.0 | 7.0 | 0.00 | 0.01 | 0.01 | 86 | 1012.4 |
| 20260509161840 | 77 | 249 | 4.0 | 5.0 | 0.00 | 0.01 | 0.01 | 86 | 1012.4 |
| 20260509161336 | 76 | 149 | 4.0 | 6.0 | 0.00 | 0.01 | 0.01 | 88 | 1012.2 |
| 20260509160832 | 76 | 227 | 11.0 | 13.0 | 0.00 | 0.01 | 0.01 | 88 | 1012.1 |
| 20260509160328 | 75 | 214 | 9.0 | 10.0 | 0.00 | 0.01 | 0.01 | 89 | 1012.4 |
| 20260509155823 | 75 | 218 | 7.0 | 8.0 | 0.00 | 0.01 | 0.01 | 91 | 1012.2 |
| 20260509155320 | 75 | 205 | 6.0 | 7.0 | 0.00 | 0.01 | 0.01 | 90 | 1012.5 |
| 20260509154816 | 75 | 226 | 7.0 | 8.0 | 0.00 | 0.01 | 0.01 | 90 | 1012.2 |
| 20260509154313 | 75 | 241 | 7.0 | 10.0 | 0.00 | 0.01 | 0.01 | 90 | 1012.4 |